createdAt,value
2023-08-06T00:00:04.711Z,17.1
2023-08-06T00:05:26.812Z,17.1
2023-08-06T00:11:18.845Z,17.2
2023-08-06T00:16:55.462Z,17.2
2023-08-06T00:22:47.636Z,17.3
2023-08-06T00:28:39.328Z,17.2
2023-08-06T00:34:30.966Z,17.1
2023-08-06T00:40:21.969Z,17.3
2023-08-06T00:45:58.335Z,17.3
2023-08-06T00:51:51.940Z,17.5
2023-08-06T00:57:43.515Z,17.2
2023-08-06T01:03:35.725Z,17.1
2023-08-06T01:09:27.413Z,17.1
2023-08-06T01:26:32.337Z,16.9
2023-08-06T01:32:24.442Z,17.1
2023-08-06T01:38:15.944Z,17.1
2023-08-06T01:44:07.812Z,17.1
2023-08-06T01:49:59.471Z,17.1
2023-08-06T01:55:51.254Z,17.2
2023-08-06T02:01:27.990Z,17.1
2023-08-06T02:07:04.451Z,17.2
2023-08-06T02:12:55.372Z,17.3
2023-08-06T02:18:46.894Z,17.3
2023-08-06T02:24:37.899Z,17.4
2023-08-06T02:30:29.883Z,17.3
2023-08-06T02:36:21.939Z,17.1
2023-08-06T02:53:28.439Z,17.1
2023-08-06T02:59:20.056Z,17.2
2023-08-06T03:05:12.589Z,17.3
2023-08-06T03:11:04.361Z,17.3
2023-08-06T03:16:56.547Z,17.4
2023-08-06T03:22:47.778Z,17.2
2023-08-06T03:28:23.889Z,17.3
2023-08-06T03:34:15.840Z,17.3
2023-08-06T03:40:07.520Z,17.3
2023-08-06T03:46:00.281Z,17.4
2023-08-06T03:51:52.431Z,17.4
2023-08-06T03:57:44.194Z,17.6
2023-08-06T04:03:21.891Z,17.7
2023-08-06T04:09:13.566Z,17.8
2023-08-06T04:15:05.564Z,17.8
2023-08-06T04:20:58.158Z,17.8
2023-08-06T04:26:34.042Z,17.8
2023-08-06T04:32:27.754Z,17.8
2023-08-06T04:38:19.329Z,17.9
2023-08-06T04:44:11.175Z,17.9
2023-08-06T04:50:02.905Z,18
2023-08-06T04:55:55.073Z,18
2023-08-06T05:01:48.208Z,18
2023-08-06T05:07:25.328Z,18.1
2023-08-06T05:13:16.396Z,18.3
2023-08-06T05:19:08.224Z,18.3
2023-08-06T05:25:00.169Z,18.5
2023-08-06T05:36:30.087Z,19
2023-08-06T05:42:21.718Z,19.7
2023-08-06T05:48:16.160Z,20.3
2023-08-06T05:54:09.120Z,19.9
2023-08-06T06:00:00.568Z,20.1
2023-08-06T06:05:52.294Z,20.9
2023-08-06T06:11:43.565Z,20.8
2023-08-06T06:17:38.396Z,20.8
2023-08-06T06:23:29.564Z,20.9
2023-08-06T06:29:24.305Z,20.5
2023-08-06T06:35:17.013Z,21.1
2023-08-06T06:41:08.891Z,20.8
2023-08-06T06:46:45.795Z,20.8
2023-08-06T06:52:37.400Z,21
2023-08-06T06:58:28.631Z,20.9
2023-08-06T07:04:21.233Z,20.9
2023-08-06T07:15:33.906Z,21.1
2023-08-06T07:21:28.675Z,21.7
2023-08-06T07:27:06.064Z,22.1
2023-08-06T07:32:57.299Z,22.4
2023-08-06T07:38:48.728Z,23.1
2023-08-06T07:44:40.402Z,23.1
2023-08-06T07:50:34.682Z,23.4
2023-08-06T07:56:26.503Z,22.9
2023-08-06T08:02:02.848Z,23.6
2023-08-06T08:07:55.677Z,23.9
2023-08-06T08:13:47.408Z,24.1
2023-08-06T08:19:23.799Z,24.2
2023-08-06T08:25:15.821Z,24.1
2023-08-06T08:31:07.209Z,24.3
2023-08-06T08:37:03.031Z,24.1
2023-08-06T08:42:39.984Z,24.3
2023-08-06T08:48:02.016Z,25.5
2023-08-06T08:53:54.147Z,26
2023-08-06T08:59:46.116Z,25.4
2023-08-06T09:05:41.505Z,25.8
2023-08-06T09:11:17.644Z,26.4
2023-08-06T09:17:10.019Z,26
2023-08-06T09:23:01.561Z,26.3
2023-08-06T09:28:53.266Z,26.1
2023-08-06T09:34:46.519Z,26.6
2023-08-06T09:40:40.571Z,26.2
2023-08-06T09:46:32.178Z,26.4
2023-08-06T09:52:25.389Z,26.6
2023-08-06T09:58:28.883Z,26.2
2023-08-06T10:04:41.036Z,26.9
2023-08-06T10:10:35.483Z,28.5
2023-08-06T10:16:30.609Z,26.4
2023-08-06T10:22:35.776Z,26.4
2023-08-06T10:28:28.028Z,25.6
2023-08-06T10:34:19.587Z,26
2023-08-06T10:40:21.680Z,25.5
2023-08-06T10:46:17.256Z,26.1
2023-08-06T10:52:13.870Z,26.6
2023-08-06T10:58:06.023Z,26.3
2023-08-06T11:03:47.142Z,24.7
2023-08-06T11:09:39.893Z,22.7
2023-08-06T11:15:47.300Z,22.9
2023-08-06T11:21:24.717Z,23.3
2023-08-06T11:27:16.170Z,23.4
2023-08-06T11:33:08.739Z,24.3
2023-08-06T11:39:00.236Z,24.1
2023-08-06T11:44:51.778Z,25.9
2023-08-06T11:50:43.741Z,26.3
2023-08-06T11:56:35.549Z,26.8
2023-08-06T12:02:12.168Z,26.3
2023-08-06T12:08:04.338Z,26.1
2023-08-06T12:13:56.266Z,25.5
2023-08-06T12:19:48.132Z,28
2023-08-06T12:25:40.249Z,28.6
2023-08-06T12:31:32.408Z,28.3
2023-08-06T12:37:38.513Z,27.2
2023-08-06T12:43:54.707Z,26.3
2023-08-06T12:49:47.220Z,26
2023-08-06T12:55:22.987Z,26.2
2023-08-06T13:01:16.325Z,26.1
2023-08-06T13:07:12.996Z,26.5
2023-08-06T13:12:48.663Z,26.1
2023-08-06T13:18:25.212Z,26
2023-08-06T13:24:17.742Z,25.8
2023-08-06T13:30:10.208Z,25.4
2023-08-06T13:36:02.177Z,25.5
2023-08-06T13:41:56.125Z,25.8
2023-08-06T13:47:32.572Z,26.2
2023-08-06T14:04:57.886Z,28.2
2023-08-06T14:10:49.785Z,28.5
2023-08-06T14:16:53.357Z,28.6
2023-08-06T14:22:29.976Z,29.1
2023-08-06T14:28:05.621Z,26.8
2023-08-06T14:34:11.497Z,26.5
2023-08-06T14:40:18.198Z,26.4
2023-08-06T14:46:09.378Z,26.3
2023-08-06T14:52:02.394Z,26.9
2023-08-06T14:57:53.580Z,27.5
2023-08-06T15:03:45.735Z,27.9
2023-08-06T15:09:50.280Z,28.8
2023-08-06T15:16:00.819Z,26.4
2023-08-06T15:21:53.225Z,26
2023-08-06T15:27:45.343Z,26.1
2023-08-06T15:33:21.943Z,26
2023-08-06T15:39:16.624Z,26
2023-08-06T15:45:08.079Z,28.1
2023-08-06T15:51:02.556Z,26.9
2023-08-06T15:56:38.611Z,26.1
2023-08-06T16:02:00.012Z,26.3
2023-08-06T16:07:53.633Z,25.6
2023-08-06T16:13:45.857Z,25.4
2023-08-06T16:19:41.325Z,25.3
2023-08-06T16:25:32.835Z,24.9
2023-08-06T16:31:24.303Z,24.9
2023-08-06T16:37:15.741Z,25.3
2023-08-06T16:43:07.496Z,25.4
2023-08-06T16:49:00.627Z,25.3
2023-08-06T16:54:53.057Z,25.2
2023-08-06T17:00:29.875Z,25.4
2023-08-06T17:06:22.924Z,25
2023-08-06T17:12:15.762Z,24.7
2023-08-06T17:18:22.487Z,24.5
2023-08-06T17:24:13.995Z,24.4
2023-08-06T17:30:05.747Z,24.3
2023-08-06T17:35:57.320Z,24.3
2023-08-06T17:41:48.920Z,24.1
2023-08-06T17:47:52.842Z,24.1
2023-08-06T17:53:44.064Z,23.9
2023-08-06T17:59:35.668Z,23.8
2023-08-06T18:05:28.682Z,23.7
2023-08-06T18:11:20.068Z,23.5
2023-08-06T18:17:12.217Z,23.3
2023-08-06T18:22:49.069Z,23.1
2023-08-06T18:28:40.836Z,22.1
2023-08-06T18:34:32.931Z,21.9
2023-08-06T18:40:24.967Z,21.7
2023-08-06T18:46:16.733Z,21.4
2023-08-06T18:52:08.170Z,21.3
2023-08-06T18:58:00.010Z,21
2023-08-06T19:03:52.730Z,20.8
2023-08-06T19:09:45.961Z,20.6
2023-08-06T19:15:37.809Z,20.4
2023-08-06T19:21:14.025Z,20.4
2023-08-06T19:27:08.805Z,20.5
2023-08-06T19:33:06.222Z,19.5
2023-08-06T19:38:58.701Z,18.4
2023-08-06T19:44:34.757Z,17.9
2023-08-06T19:50:28.046Z,17.4
2023-08-06T19:56:20.350Z,17.1
2023-08-06T20:02:12.311Z,16.9
2023-08-06T20:07:49.013Z,16.8
2023-08-06T20:13:40.232Z,16.6
2023-08-06T20:19:35.171Z,16.4
2023-08-06T20:25:28.612Z,16.6
2023-08-06T20:31:21.526Z,16.4
2023-08-06T20:37:14.357Z,16.4
2023-08-06T20:42:50.687Z,16.3
2023-08-06T20:48:26.970Z,16.2
2023-08-06T20:54:18.233Z,16.1
2023-08-06T21:00:09.572Z,16.1
2023-08-06T21:06:00.717Z,16.1
2023-08-06T21:11:51.817Z,16.3
2023-08-06T21:17:43.802Z,16.4
2023-08-06T21:23:35.487Z,16.4
2023-08-06T21:29:26.985Z,16.4
2023-08-06T21:35:22.470Z,16.4
2023-08-06T21:41:14.128Z,16.4
2023-08-06T21:47:07.676Z,16.4
2023-08-06T21:52:59.821Z,16.4
2023-08-06T21:58:51.634Z,16.2
2023-08-06T22:04:29.366Z,16.1
2023-08-06T22:10:21.134Z,16
2023-08-06T22:16:12.486Z,15.9
2023-08-06T22:21:48.587Z,15.9
2023-08-06T22:27:24.842Z,15.9
2023-08-06T22:33:30.156Z,15.9
2023-08-06T22:39:21.758Z,15.9
2023-08-06T22:45:13.279Z,16
2023-08-06T22:51:04.984Z,15.9
2023-08-06T22:57:50.802Z,15.7
2023-08-06T23:03:59.255Z,15.7
2023-08-06T23:09:51.087Z,15.7
2023-08-06T23:15:43.679Z,15.6
2023-08-06T23:21:35.089Z,15.3
2023-08-06T23:27:26.059Z,15.2
2023-08-06T23:33:22.070Z,15.1
2023-08-06T23:39:23.847Z,15
2023-08-06T23:45:14.951Z,14.9
2023-08-06T23:50:51.786Z,14.8
2023-08-06T23:56:43.140Z,14.6
